sensor_id;sensor_type;location;lat;lon;timestamp;pressure;altitude;pressure_sealevel;temperature;humidity
23016;BME280;11674;52.428;13.584;2022-11-20T00:03:00;100908.38;;;2.18;72.22
23016;BME280;11674;52.428;13.584;2022-11-20T00:08:07;100906.84;;;2.22;71.95
23016;BME280;11674;52.428;13.584;2022-11-20T00:13:14;100911.34;;;2.16;71.87
23016;BME280;11674;52.428;13.584;2022-11-20T00:18:21;100904.66;;;2.12;72.20
23016;BME280;11674;52.428;13.584;2022-11-20T00:23:44;100900.00;;;2.13;72.26
23016;BME280;11674;52.428;13.584;2022-11-20T00:28:56;100898.28;;;2.18;72.15
23016;BME280;11674;52.428;13.584;2022-11-20T00:34:04;100899.56;;;2.16;72.20
23016;BME280;11674;52.428;13.584;2022-11-20T00:39:11;100902.75;;;2.13;72.31
23016;BME280;11674;52.428;13.584;2022-11-20T00:44:18;100904.53;;;2.07;72.35
23016;BME280;11674;52.428;13.584;2022-11-20T00:49:25;100898.69;;;2.04;72.23
23016;BME280;11674;52.428;13.584;2022-11-20T00:54:32;100910.94;;;2.01;72.44
23016;BME280;11674;52.428;13.584;2022-11-20T00:59:39;100908.41;;;2.00;72.24
23016;BME280;11674;52.428;13.584;2022-11-20T01:04:46;100913.03;;;1.99;72.30
23016;BME280;11674;52.428;13.584;2022-11-20T01:09:53;100912.00;;;2.00;72.39
23016;BME280;11674;52.428;13.584;2022-11-20T01:15:00;100915.56;;;2.01;72.34
23016;BME280;11674;52.428;13.584;2022-11-20T01:20:07;100912.22;;;1.99;72.45
23016;BME280;11674;52.428;13.584;2022-11-20T01:25:14;100906.28;;;2.02;72.43
23016;BME280;11674;52.428;13.584;2022-11-20T01:30:21;100902.03;;;2.06;72.31
23016;BME280;11674;52.428;13.584;2022-11-20T01:35:28;100898.69;;;2.04;72.22
23016;BME280;11674;52.428;13.584;2022-11-20T01:40:35;100904.97;;;2.04;72.46
23016;BME280;11674;52.428;13.584;2022-11-20T01:45:56;100900.34;;;2.05;72.40
23016;BME280;11674;52.428;13.584;2022-11-20T01:51:10;100903.59;;;2.13;72.44
23016;BME280;11674;52.428;13.584;2022-11-20T01:56:19;100888.72;;;2.09;72.40
23016;BME280;11674;52.428;13.584;2022-11-20T02:01:26;100894.31;;;2.03;72.37
23016;BME280;11674;52.428;13.584;2022-11-20T02:06:38;100886.53;;;2.00;72.51
23016;BME280;11674;52.428;13.584;2022-11-20T02:11:47;100878.94;;;2.02;72.31
23016;BME280;11674;52.428;13.584;2022-11-20T02:16:54;100867.63;;;1.98;72.50
23016;BME280;11674;52.428;13.584;2022-11-20T02:22:10;100883.66;;;1.95;72.39
23016;BME280;11674;52.428;13.584;2022-11-20T02:27:20;100874.72;;;1.88;72.54
23016;BME280;11674;52.428;13.584;2022-11-20T02:32:28;100877.47;;;1.88;72.50
23016;BME280;11674;52.428;13.584;2022-11-20T02:37:37;100872.38;;;1.91;72.69
23016;BME280;11674;52.428;13.584;2022-11-20T02:42:45;100877.84;;;1.91;72.39
23016;BME280;11674;52.428;13.584;2022-11-20T02:47:52;100866.53;;;1.88;72.47
23016;BME280;11674;52.428;13.584;2022-11-20T02:52:59;100864.38;;;1.90;72.38
23016;BME280;11674;52.428;13.584;2022-11-20T02:58:06;100861.66;;;1.90;72.35
23016;BME280;11674;52.428;13.584;2022-11-20T03:03:13;100854.28;;;1.90;72.63
23016;BME280;11674;52.428;13.584;2022-11-20T03:08:23;100858.91;;;1.90;72.34
23016;BME280;11674;52.428;13.584;2022-11-20T03:13:30;100851.88;;;1.82;72.42
23016;BME280;11674;52.428;13.584;2022-11-20T03:18:38;100852.56;;;1.78;72.33
23016;BME280;11674;52.428;13.584;2022-11-20T03:23:45;100852.81;;;1.76;72.47
23016;BME280;11674;52.428;13.584;2022-11-20T03:28:54;100838.44;;;1.81;72.63
23016;BME280;11674;52.428;13.584;2022-11-20T03:34:02;100839.50;;;1.80;72.54
23016;BME280;11674;52.428;13.584;2022-11-20T03:39:09;100841.63;;;1.78;72.27
23016;BME280;11674;52.428;13.584;2022-11-20T03:44:16;100847.34;;;1.76;72.36
23016;BME280;11674;52.428;13.584;2022-11-20T03:49:23;100847.81;;;1.73;72.35
23016;BME280;11674;52.428;13.584;2022-11-20T03:54:30;100839.47;;;1.68;72.46
23016;BME280;11674;52.428;13.584;2022-11-20T03:59:37;100851.44;;;1.67;72.25
23016;BME280;11674;52.428;13.584;2022-11-20T04:04:44;100843.22;;;1.56;72.47
23016;BME280;11674;52.428;13.584;2022-11-20T04:09:51;100844.72;;;1.52;72.58
23016;BME280;11674;52.428;13.584;2022-11-20T04:14:58;100830.47;;;1.50;72.51
23016;BME280;11674;52.428;13.584;2022-11-20T04:20:05;100838.41;;;1.51;72.51
23016;BME280;11674;52.428;13.584;2022-11-20T04:25:13;100837.59;;;1.51;72.49
23016;BME280;11674;52.428;13.584;2022-11-20T04:30:20;100848.19;;;1.59;72.59
23016;BME280;11674;52.428;13.584;2022-11-20T04:35:27;100841.22;;;1.63;72.51
23016;BME280;11674;52.428;13.584;2022-11-20T04:40:34;100836.34;;;1.65;72.49
23016;BME280;11674;52.428;13.584;2022-11-20T04:45:41;100830.28;;;1.63;72.49
23016;BME280;11674;52.428;13.584;2022-11-20T04:50:48;100817.09;;;1.60;72.57
23016;BME280;11674;52.428;13.584;2022-11-20T04:56:06;100819.56;;;1.61;72.58
23016;BME280;11674;52.428;13.584;2022-11-20T05:01:16;100829.06;;;1.59;72.35
23016;BME280;11674;52.428;13.584;2022-11-20T05:06:23;100817.31;;;1.58;72.55
23016;BME280;11674;52.428;13.584;2022-11-20T05:11:31;100808.06;;;1.59;72.67
23016;BME280;11674;52.428;13.584;2022-11-20T05:16:38;100803.78;;;1.63;72.38
23016;BME280;11674;52.428;13.584;2022-11-20T05:21:45;100803.53;;;1.65;72.51
23016;BME280;11674;52.428;13.584;2022-11-20T05:26:52;100793.38;;;1.72;72.57
23016;BME280;11674;52.428;13.584;2022-11-20T05:31:59;100793.50;;;1.77;72.38
23016;BME280;11674;52.428;13.584;2022-11-20T05:37:06;100790.50;;;1.78;72.54
23016;BME280;11674;52.428;13.584;2022-11-20T05:42:13;100800.06;;;1.87;72.45
23016;BME280;11674;52.428;13.584;2022-11-20T05:47:20;100794.50;;;1.94;72.54
23016;BME280;11674;52.428;13.584;2022-11-20T05:52:30;100786.53;;;1.92;72.65
23016;BME280;11674;52.428;13.584;2022-11-20T05:57:37;100784.78;;;1.98;72.52
23016;BME280;11674;52.428;13.584;2022-11-20T06:02:44;100784.78;;;1.98;72.44
23016;BME280;11674;52.428;13.584;2022-11-20T06:07:51;100784.28;;;2.01;72.48
23016;BME280;11674;52.428;13.584;2022-11-20T06:12:58;100780.47;;;2.02;72.58
23016;BME280;11674;52.428;13.584;2022-11-20T06:18:05;100783.22;;;2.02;72.52
23016;BME280;11674;52.428;13.584;2022-11-20T06:23:12;100779.19;;;2.04;72.54
23016;BME280;11674;52.428;13.584;2022-11-20T06:28:19;100782.75;;;2.05;72.66
23016;BME280;11674;52.428;13.584;2022-11-20T06:33:26;100776.84;;;2.08;72.64
23016;BME280;11674;52.428;13.584;2022-11-20T06:38:34;100779.91;;;2.11;72.64
23016;BME280;11674;52.428;13.584;2022-11-20T06:43:41;100791.91;;;2.10;72.47
23016;BME280;11674;52.428;13.584;2022-11-20T06:48:49;100775.25;;;2.12;72.70
23016;BME280;11674;52.428;13.584;2022-11-20T06:53:56;100768.72;;;2.13;72.50
23016;BME280;11674;52.428;13.584;2022-11-20T06:59:04;100769.00;;;2.11;72.68
23016;BME280;11674;52.428;13.584;2022-11-20T07:04:11;100771.47;;;2.13;72.47
23016;BME280;11674;52.428;13.584;2022-11-20T07:09:18;100771.09;;;2.09;72.63
23016;BME280;11674;52.428;13.584;2022-11-20T07:14:25;100771.81;;;2.05;72.50
23016;BME280;11674;52.428;13.584;2022-11-20T07:19:32;100773.47;;;2.06;72.50
23016;BME280;11674;52.428;13.584;2022-11-20T07:24:39;100772.28;;;2.02;72.44
23016;BME280;11674;52.428;13.584;2022-11-20T07:29:46;100763.47;;;2.00;72.71
23016;BME280;11674;52.428;13.584;2022-11-20T07:34:53;100763.13;;;1.96;72.45
23016;BME280;11674;52.428;13.584;2022-11-20T07:40:00;100763.59;;;1.93;72.72
23016;BME280;11674;52.428;13.584;2022-11-20T07:45:07;100770.03;;;1.99;72.54
23016;BME280;11674;52.428;13.584;2022-11-20T07:50:14;100767.19;;;2.05;72.63
23016;BME280;11674;52.428;13.584;2022-11-20T07:55:22;100771.56;;;1.95;72.51
23016;BME280;11674;52.428;13.584;2022-11-20T08:00:29;100757.03;;;1.94;72.56
23016;BME280;11674;52.428;13.584;2022-11-20T08:05:36;100758.72;;;2.07;72.69
23016;BME280;11674;52.428;13.584;2022-11-20T08:10:43;100763.16;;;2.08;72.49
23016;BME280;11674;52.428;13.584;2022-11-20T08:15:50;100760.06;;;2.16;72.69
23016;BME280;11674;52.428;13.584;2022-11-20T08:20:57;100756.88;;;2.19;72.66
23016;BME280;11674;52.428;13.584;2022-11-20T08:26:11;100759.81;;;2.29;72.66
23016;BME280;11674;52.428;13.584;2022-11-20T08:31:18;100758.16;;;2.28;72.51
23016;BME280;11674;52.428;13.584;2022-11-20T08:36:25;100749.25;;;2.32;72.49
23016;BME280;11674;52.428;13.584;2022-11-20T08:41:32;100751.84;;;2.39;72.57
23016;BME280;11674;52.428;13.584;2022-11-20T08:46:41;100747.59;;;2.43;72.49
23016;BME280;11674;52.428;13.584;2022-11-20T08:51:48;100753.56;;;2.40;72.66
23016;BME280;11674;52.428;13.584;2022-11-20T08:56:55;100749.13;;;2.39;72.50
23016;BME280;11674;52.428;13.584;2022-11-20T09:02:02;100747.56;;;2.31;72.81
23016;BME280;11674;52.428;13.584;2022-11-20T09:07:09;100735.69;;;2.26;72.58
23016;BME280;11674;52.428;13.584;2022-11-20T09:12:16;100744.13;;;2.24;72.57
23016;BME280;11674;52.428;13.584;2022-11-20T09:17:23;100740.59;;;2.24;72.55
23016;BME280;11674;52.428;13.584;2022-11-20T09:22:30;100746.28;;;2.22;72.68
23016;BME280;11674;52.428;13.584;2022-11-20T09:27:37;100745.09;;;2.30;72.57
23016;BME280;11674;52.428;13.584;2022-11-20T09:32:44;100745.31;;;2.17;72.52
23016;BME280;11674;52.428;13.584;2022-11-20T09:37:51;100752.09;;;2.26;72.58
23016;BME280;11674;52.428;13.584;2022-11-20T09:43:14;100736.28;;;2.28;72.73
23016;BME280;11674;52.428;13.584;2022-11-20T09:54:20;100723.44;;;2.28;72.60
23016;BME280;11674;52.428;13.584;2022-11-20T09:59:42;100723.56;;;2.33;72.64
23016;BME280;11674;52.428;13.584;2022-11-20T10:04:59;100716.16;;;2.34;72.62
23016;BME280;11674;52.428;13.584;2022-11-20T10:10:27;100721.28;;;2.42;72.19
23016;BME280;11674;52.428;13.584;2022-11-20T10:21:38;100718.06;;;2.45;72.31
23016;BME280;11674;52.428;13.584;2022-11-20T10:26:54;100723.19;;;2.53;72.32
23016;BME280;11674;52.428;13.584;2022-11-20T10:32:15;100722.13;;;2.54;72.25
23016;BME280;11674;52.428;13.584;2022-11-20T10:37:25;100718.19;;;2.50;72.23
23016;BME280;11674;52.428;13.584;2022-11-20T10:43:00;100713.66;;;2.55;72.09
23016;BME280;11674;52.428;13.584;2022-11-20T10:48:15;100706.78;;;2.53;71.95
23016;BME280;11674;52.428;13.584;2022-11-20T10:53:35;100693.56;;;2.50;72.14
23016;BME280;11674;52.428;13.584;2022-11-20T11:04:54;100702.19;;;2.81;72.07
23016;BME280;11674;52.428;13.584;2022-11-20T11:09:44;100706.31;;;2.95;72.03
23016;BME280;11674;52.428;13.584;2022-11-20T11:14:55;100693.81;;;2.99;72.12
23016;BME280;11674;52.428;13.584;2022-11-20T11:20:13;100688.31;;;2.99;71.81
23016;BME280;11674;52.428;13.584;2022-11-20T11:25:36;100687.44;;;2.82;72.11
23016;BME280;11674;52.428;13.584;2022-11-20T11:30:44;100677.69;;;2.75;72.04
23016;BME280;11674;52.428;13.584;2022-11-20T11:36:21;100669.09;;;2.83;72.07
23016;BME280;11674;52.428;13.584;2022-11-20T11:41:32;100670.25;;;2.87;72.15
23016;BME280;11674;52.428;13.584;2022-11-20T11:46:40;100667.63;;;2.92;71.89
23016;BME280;11674;52.428;13.584;2022-11-20T11:52:20;100660.56;;;3.07;72.14
23016;BME280;11674;52.428;13.584;2022-11-20T12:03:14;100659.78;;;3.23;71.69
23016;BME280;11674;52.428;13.584;2022-11-20T12:08:31;100648.91;;;3.28;71.69
23016;BME280;11674;52.428;13.584;2022-11-20T12:13:48;100651.19;;;3.48;71.75
23016;BME280;11674;52.428;13.584;2022-11-20T12:18:57;100655.53;;;3.60;71.58
23016;BME280;11674;52.428;13.584;2022-11-20T12:35:29;100639.22;;;3.54;71.52
23016;BME280;11674;52.428;13.584;2022-11-20T13:08:33;100626.69;;;3.91;71.26
23016;BME280;11674;52.428;13.584;2022-11-20T13:13:59;100616.97;;;3.83;71.25
23016;BME280;11674;52.428;13.584;2022-11-20T13:19:15;100612.03;;;3.85;71.28
23016;BME280;11674;52.428;13.584;2022-11-20T13:24:26;100602.25;;;3.73;71.24
23016;BME280;11674;52.428;13.584;2022-11-20T13:29:35;100594.13;;;3.61;71.19
23016;BME280;11674;52.428;13.584;2022-11-20T13:34:56;100598.91;;;3.54;71.25
23016;BME280;11674;52.428;13.584;2022-11-20T13:40:20;100596.19;;;3.38;71.22
23016;BME280;11674;52.428;13.584;2022-11-20T13:45:30;100591.59;;;3.27;71.22
23016;BME280;11674;52.428;13.584;2022-11-20T13:55:59;100576.41;;;3.19;71.24
23016;BME280;11674;52.428;13.584;2022-11-20T14:01:10;100587.03;;;3.16;71.40
23016;BME280;11674;52.428;13.584;2022-11-20T14:06:25;100591.75;;;3.20;71.36
23016;BME280;11674;52.428;13.584;2022-11-20T14:11:33;100590.34;;;3.18;71.41
23016;BME280;11674;52.428;13.584;2022-11-20T14:16:40;100595.47;;;3.14;71.34
23016;BME280;11674;52.428;13.584;2022-11-20T14:21:48;100582.78;;;3.08;71.43
23016;BME280;11674;52.428;13.584;2022-11-20T14:26:55;100584.66;;;3.08;71.60
23016;BME280;11674;52.428;13.584;2022-11-20T14:32:02;100582.25;;;3.11;71.63
23016;BME280;11674;52.428;13.584;2022-11-20T14:37:12;100584.44;;;3.09;71.49
23016;BME280;11674;52.428;13.584;2022-11-20T14:42:27;100586.84;;;3.06;71.77
23016;BME280;11674;52.428;13.584;2022-11-20T14:47:35;100582.44;;;3.05;71.62
23016;BME280;11674;52.428;13.584;2022-11-20T14:52:59;100579.19;;;3.08;71.82
23016;BME280;11674;52.428;13.584;2022-11-20T14:58:24;100583.34;;;3.10;71.97
23016;BME280;11674;52.428;13.584;2022-11-20T15:03:36;100581.47;;;3.11;71.96
23016;BME280;11674;52.428;13.584;2022-11-20T15:08:51;100584.53;;;3.14;71.77
23016;BME280;11674;52.428;13.584;2022-11-20T15:14:02;100578.19;;;3.14;71.99
23016;BME280;11674;52.428;13.584;2022-11-20T15:19:24;100577.06;;;3.10;71.94
23016;BME280;11674;52.428;13.584;2022-11-20T15:24:32;100573.81;;;3.13;72.09
23016;BME280;11674;52.428;13.584;2022-11-20T15:29:39;100563.09;;;3.11;72.05
23016;BME280;11674;52.428;13.584;2022-11-20T15:34:47;100570.81;;;3.14;72.17
23016;BME280;11674;52.428;13.584;2022-11-20T15:39:54;100577.16;;;3.15;72.07
23016;BME280;11674;52.428;13.584;2022-11-20T15:45:02;100574.50;;;3.20;72.08
23016;BME280;11674;52.428;13.584;2022-11-20T15:50:15;100561.63;;;3.20;72.24
23016;BME280;11674;52.428;13.584;2022-11-20T15:55:23;100572.91;;;3.24;72.14
23016;BME280;11674;52.428;13.584;2022-11-20T16:00:30;100558.72;;;3.27;72.08
23016;BME280;11674;52.428;13.584;2022-11-20T16:05:37;100565.53;;;3.24;72.12
23016;BME280;11674;52.428;13.584;2022-11-20T16:10:44;100561.72;;;3.25;72.20
23016;BME280;11674;52.428;13.584;2022-11-20T16:15:54;100553.25;;;3.27;72.09
23016;BME280;11674;52.428;13.584;2022-11-20T16:21:03;100556.22;;;3.25;72.20
23016;BME280;11674;52.428;13.584;2022-11-20T16:26:12;100550.66;;;3.20;72.35
23016;BME280;11674;52.428;13.584;2022-11-20T16:31:20;100553.91;;;3.17;72.31
23016;BME280;11674;52.428;13.584;2022-11-20T16:36:28;100554.63;;;3.13;72.25
23016;BME280;11674;52.428;13.584;2022-11-20T16:41:37;100550.28;;;3.00;72.08
23016;BME280;11674;52.428;13.584;2022-11-20T16:46:44;100562.75;;;2.91;72.18
23016;BME280;11674;52.428;13.584;2022-11-20T16:51:51;100552.16;;;2.83;72.04
23016;BME280;11674;52.428;13.584;2022-11-20T16:56:58;100558.16;;;2.80;72.28
23016;BME280;11674;52.428;13.584;2022-11-20T17:02:05;100560.38;;;2.83;72.27
23016;BME280;11674;52.428;13.584;2022-11-20T17:07:12;100562.66;;;2.86;72.39
23016;BME280;11674;52.428;13.584;2022-11-20T17:12:19;100554.78;;;2.90;72.04
23016;BME280;11674;52.428;13.584;2022-11-20T17:17:26;100558.94;;;2.92;72.24
23016;BME280;11674;52.428;13.584;2022-11-20T17:22:33;100557.28;;;2.91;72.01
23016;BME280;11674;52.428;13.584;2022-11-20T17:27:40;100547.13;;;2.92;72.11
23016;BME280;11674;52.428;13.584;2022-11-20T17:32:47;100560.59;;;2.93;72.13
23016;BME280;11674;52.428;13.584;2022-11-20T17:37:54;100551.78;;;2.91;72.01
23016;BME280;11674;52.428;13.584;2022-11-20T17:43:01;100552.03;;;2.90;72.16
23016;BME280;11674;52.428;13.584;2022-11-20T17:48:08;100555.59;;;2.90;72.09
23016;BME280;11674;52.428;13.584;2022-11-20T17:53:15;100546.88;;;2.93;71.98
23016;BME280;11674;52.428;13.584;2022-11-20T17:58:22;100550.19;;;2.95;72.15
23016;BME280;11674;52.428;13.584;2022-11-20T18:03:32;100544.47;;;2.97;71.96
23016;BME280;11674;52.428;13.584;2022-11-20T18:08:39;100529.13;;;2.96;71.92
23016;BME280;11674;52.428;13.584;2022-11-20T18:13:49;100528.81;;;2.92;72.03
23016;BME280;11674;52.428;13.584;2022-11-20T18:18:57;100521.91;;;2.90;72.02
23016;BME280;11674;52.428;13.584;2022-11-20T18:24:05;100507.28;;;2.84;72.04
23016;BME280;11674;52.428;13.584;2022-11-20T18:29:12;100508.78;;;2.75;71.95
23016;BME280;11674;52.428;13.584;2022-11-20T18:34:19;100510.72;;;2.63;71.84
23016;BME280;11674;52.428;13.584;2022-11-20T18:39:26;100506.50;;;2.56;71.98
23016;BME280;11674;52.428;13.584;2022-11-20T18:44:33;100511.88;;;2.51;71.88
23016;BME280;11674;52.428;13.584;2022-11-20T18:49:45;100505.94;;;2.42;72.07
23016;BME280;11674;52.428;13.584;2022-11-20T18:54:52;100509.06;;;2.34;71.98
23016;BME280;11674;52.428;13.584;2022-11-20T18:59:59;100504.81;;;2.27;71.74
23016;BME280;11674;52.428;13.584;2022-11-20T19:05:13;100503.06;;;2.21;71.87
23016;BME280;11674;52.428;13.584;2022-11-20T19:10:20;100509.72;;;2.13;71.88
23016;BME280;11674;52.428;13.584;2022-11-20T19:15:27;100509.84;;;2.07;71.76
23016;BME280;11674;52.428;13.584;2022-11-20T19:20:34;100511.31;;;1.98;71.91
23016;BME280;11674;52.428;13.584;2022-11-20T19:25:41;100509.56;;;1.92;71.80
23016;BME280;11674;52.428;13.584;2022-11-20T19:30:48;100512.41;;;1.85;71.98
23016;BME280;11674;52.428;13.584;2022-11-20T19:35:55;100516.94;;;1.80;72.02
23016;BME280;11674;52.428;13.584;2022-11-20T19:41:03;100517.53;;;1.82;72.03
23016;BME280;11674;52.428;13.584;2022-11-20T19:46:10;100508.94;;;1.90;72.03
23016;BME280;11674;52.428;13.584;2022-11-20T19:51:22;100520.56;;;1.97;72.12
23016;BME280;11674;52.428;13.584;2022-11-20T19:56:31;100512.63;;;1.95;72.09
23016;BME280;11674;52.428;13.584;2022-11-20T20:01:38;100508.94;;;2.01;72.25
23016;BME280;11674;52.428;13.584;2022-11-20T20:06:45;100503.94;;;1.98;72.09
23016;BME280;11674;52.428;13.584;2022-11-20T20:11:55;100494.19;;;1.91;72.14
23016;BME280;11674;52.428;13.584;2022-11-20T20:17:02;100494.09;;;1.86;71.85
23016;BME280;11674;52.428;13.584;2022-11-20T20:22:09;100489.47;;;1.75;72.06
23016;BME280;11674;52.428;13.584;2022-11-20T20:27:17;100483.78;;;1.65;72.04
23016;BME280;11674;52.428;13.584;2022-11-20T20:32:24;100491.63;;;1.61;72.08
23016;BME280;11674;52.428;13.584;2022-11-20T20:37:31;100481.66;;;1.55;71.93
23016;BME280;11674;52.428;13.584;2022-11-20T20:42:38;100474.06;;;1.46;71.89
23016;BME280;11674;52.428;13.584;2022-11-20T20:47:45;100467.31;;;1.37;71.87
23016;BME280;11674;52.428;13.584;2022-11-20T20:52:52;100464.34;;;1.27;71.90
23016;BME280;11674;52.428;13.584;2022-11-20T20:57:59;100470.16;;;1.19;71.87
23016;BME280;11674;52.428;13.584;2022-11-20T21:03:06;100465.41;;;1.14;71.85
23016;BME280;11674;52.428;13.584;2022-11-20T21:08:13;100461.97;;;1.07;71.82
23016;BME280;11674;52.428;13.584;2022-11-20T21:13:21;100448.19;;;1.02;71.65
23016;BME280;11674;52.428;13.584;2022-11-20T21:18:30;100449.38;;;0.95;71.75
23016;BME280;11674;52.428;13.584;2022-11-20T21:23:38;100442.75;;;0.91;71.85
23016;BME280;11674;52.428;13.584;2022-11-20T21:28:45;100428.56;;;0.82;71.72
23016;BME280;11674;52.428;13.584;2022-11-20T21:33:53;100426.56;;;0.78;71.74
23016;BME280;11674;52.428;13.584;2022-11-20T21:39:00;100421.09;;;0.78;71.83
23016;BME280;11674;52.428;13.584;2022-11-20T21:44:12;100427.63;;;0.77;71.92
23016;BME280;11674;52.428;13.584;2022-11-20T21:49:19;100415.88;;;0.76;72.00
23016;BME280;11674;52.428;13.584;2022-11-20T21:54:26;100413.28;;;0.70;71.78
23016;BME280;11674;52.428;13.584;2022-11-20T21:59:33;100402.81;;;0.67;71.91
23016;BME280;11674;52.428;13.584;2022-11-20T22:04:40;100400.81;;;0.62;71.92
23016;BME280;11674;52.428;13.584;2022-11-20T22:09:47;100403.19;;;0.59;71.77
23016;BME280;11674;52.428;13.584;2022-11-20T22:14:54;100398.41;;;0.54;71.76
23016;BME280;11674;52.428;13.584;2022-11-20T22:20:01;100388.81;;;0.52;71.69
23016;BME280;11674;52.428;13.584;2022-11-20T22:25:08;100392.25;;;0.47;71.87
23016;BME280;11674;52.428;13.584;2022-11-20T22:30:15;100380.63;;;0.40;71.73
23016;BME280;11674;52.428;13.584;2022-11-20T22:35:22;100394.72;;;0.37;71.91
23016;BME280;11674;52.428;13.584;2022-11-20T22:40:31;100368.38;;;0.31;71.97
23016;BME280;11674;52.428;13.584;2022-11-20T22:45:37;100364.81;;;0.31;71.91
23016;BME280;11674;52.428;13.584;2022-11-20T22:50:44;100361.03;;;0.32;71.82
23016;BME280;11674;52.428;13.584;2022-11-20T22:55:51;100356.03;;;0.29;71.74
23016;BME280;11674;52.428;13.584;2022-11-20T23:06:21;100343.63;;;0.33;72.03
23016;BME280;11674;52.428;13.584;2022-11-20T23:11:30;100342.44;;;0.40;72.14
23016;BME280;11674;52.428;13.584;2022-11-20T23:16:37;100333.09;;;0.48;72.04
23016;BME280;11674;52.428;13.584;2022-11-20T23:21:44;100337.09;;;0.57;72.24
23016;BME280;11674;52.428;13.584;2022-11-20T23:26:51;100326.09;;;0.63;72.36
23016;BME280;11674;52.428;13.584;2022-11-20T23:31:58;100315.63;;;0.72;72.37
23016;BME280;11674;52.428;13.584;2022-11-20T23:37:05;100309.84;;;0.80;72.42
23016;BME280;11674;52.428;13.584;2022-11-20T23:42:12;100303.66;;;0.84;72.45
23016;BME280;11674;52.428;13.584;2022-11-20T23:47:19;100299.13;;;0.90;72.52
23016;BME280;11674;52.428;13.584;2022-11-20T23:52:26;100287.84;;;0.98;72.44
23016;BME280;11674;52.428;13.584;2022-11-20T23:57:33;100280.34;;;1.05;72.29
